createdAt,value
2022-08-09T00:00:11.394Z,83.7
2022-08-09T00:01:14.410Z,83.7
2022-08-09T00:02:13.079Z,84.1
2022-08-09T00:04:10.028Z,84.2
2022-08-09T00:04:34.103Z,84.1
2022-08-09T00:06:17.291Z,84.4
2022-08-09T00:06:22.738Z,83.7
2022-08-09T00:07:20.964Z,83.7
2022-08-09T00:08:32.072Z,84.4
2022-08-09T00:09:24.033Z,84.9
2022-08-09T00:10:25.449Z,84.9
2022-08-09T00:11:27.645Z,85.6
2022-08-09T00:12:29.811Z,85.1
2022-08-09T00:13:31.732Z,85.5
2022-08-09T00:14:38.182Z,85.5
2022-08-09T00:15:57.528Z,85.8
2022-08-09T00:16:36.691Z,85.5
2022-08-09T00:18:07.713Z,86.0
2022-08-09T00:18:37.652Z,85.5
2022-08-09T00:19:38.341Z,85.9
2022-08-09T00:20:42.578Z,86.2
2022-08-09T00:21:56.237Z,86.2
2022-08-09T00:22:43.107Z,86.2
2022-08-09T00:23:55.160Z,86.2
2022-08-09T00:24:46.283Z,86.2
2022-08-09T00:25:51.833Z,86.5
2022-08-09T00:26:49.394Z,86.5
2022-08-09T00:27:49.989Z,86.5
2022-08-09T00:28:52.441Z,86.8
2022-08-09T00:30:16.284Z,87.2
2022-08-09T00:30:52.802Z,87.2
2022-08-09T00:31:59.150Z,87.3
2022-08-09T00:32:55.001Z,87.4
2022-08-09T00:33:55.590Z,87.8
2022-08-09T00:34:56.180Z,87.1
2022-08-09T00:35:56.793Z,87.1
2022-08-09T00:36:58.381Z,87.1
2022-08-09T00:37:59.404Z,87.8
2022-08-09T00:39:00.995Z,87.7
2022-08-09T00:40:13.629Z,87.9
2022-08-09T00:41:05.310Z,87.4
2022-08-09T00:44:10.787Z,87.9
2022-08-09T00:44:14.161Z,87.2
2022-08-09T00:44:26.590Z,88.2
2022-08-09T00:45:15.835Z,88.8
2022-08-09T00:46:14.498Z,88.7
2022-08-09T00:47:15.357Z,88.5
2022-08-09T00:48:15.537Z,88.7
2022-08-09T00:49:16.879Z,89.0
2022-08-09T00:50:18.467Z,88.5
2022-08-09T00:51:19.064Z,88.6
2022-08-09T00:52:19.912Z,88.8
2022-08-09T00:53:24.419Z,89.6
2022-08-09T00:54:22.235Z,89.4
2022-08-09T00:56:03.126Z,89.4
2022-08-09T00:56:24.410Z,89.6
2022-08-09T00:57:33.839Z,90.0
2022-08-09T00:58:27.855Z,89.8
2022-08-09T00:59:31.646Z,90.5
2022-08-09T01:00:29.944Z,89.2
2022-08-09T01:01:32.450Z,90.6
2022-08-09T01:02:32.325Z,89.6
2022-08-09T01:03:32.823Z,90.8
2022-08-09T01:04:34.326Z,91.1
2022-08-09T01:05:53.598Z,90.9
2022-08-09T01:06:54.877Z,90.6
2022-08-09T01:07:59.902Z,90.9
2022-08-09T01:08:38.958Z,90.9
2022-08-09T01:09:40.546Z,91.1
2022-08-09T01:10:41.142Z,91.3
2022-08-09T01:11:53.253Z,91.4
2022-08-09T01:12:44.321Z,91.4
2022-08-09T01:13:58.530Z,91.4
2022-08-09T01:14:46.986Z,91.7
2022-08-09T01:15:52.587Z,91.6
2022-08-09T01:16:50.161Z,91.9
2022-08-09T01:17:51.965Z,91.8
2022-08-09T01:19:01.991Z,91.8
2022-08-09T01:20:02.484Z,92.1
2022-08-09T01:20:56.518Z,92.2
2022-08-09T01:21:57.111Z,92.0
2022-08-09T01:22:58.699Z,92.2
2022-08-09T01:24:02.237Z,92.2
2022-08-09T01:25:01.875Z,92.5
2022-08-09T01:26:03.322Z,92.8
2022-08-09T01:27:03.919Z,92.5
2022-08-09T01:28:04.529Z,92.8
2022-08-09T01:29:05.338Z,93.0
2022-08-09T01:30:06.079Z,93.2
2022-08-09T01:31:07.666Z,93.0
2022-08-09T01:32:32.446Z,93.4
2022-08-09T01:33:09.974Z,93.7
2022-08-09T01:34:10.724Z,93.7
2022-08-09T01:35:37.174Z,94.1
2022-08-09T01:36:13.534Z,93.8
2022-08-09T01:37:14.203Z,94.2
2022-08-09T01:38:15.937Z,94.0
2022-08-09T01:39:16.536Z,94.3
2022-08-09T01:40:23.322Z,94.4
2022-08-09T01:41:18.724Z,94.3
2022-08-09T01:42:20.312Z,94.4
2022-08-09T01:43:21.841Z,94.2
2022-08-09T01:44:23.426Z,94.3
2022-08-09T01:45:24.074Z,94.0
2022-08-09T01:46:26.769Z,94.8
2022-08-09T01:47:26.260Z,94.9
2022-08-09T01:48:29.685Z,95.1
2022-08-09T01:49:38.848Z,95.2
2022-08-09T01:50:37.223Z,94.1
2022-08-09T01:51:33.098Z,94.9
2022-08-09T01:52:33.784Z,94.9
2022-08-09T01:53:40.997Z,94.7
2022-08-09T01:54:35.997Z,95.0
2022-08-09T01:55:37.063Z,95.0
2022-08-09T01:56:38.684Z,95.0
2022-08-09T01:57:39.886Z,95.2
2022-08-09T01:58:40.837Z,94.8
2022-08-09T01:59:51.806Z,95.1
2022-08-09T02:00:43.042Z,94.8
2022-08-09T02:01:58.113Z,94.5
2022-08-09T02:02:46.199Z,94.6
2022-08-09T02:03:46.797Z,95.0
2022-08-09T02:04:47.832Z,94.8
2022-08-09T02:06:03.878Z,95.0
2022-08-09T02:06:54.380Z,95.3
2022-08-09T02:08:39.062Z,95.0
2022-08-09T02:08:58.769Z,94.9
2022-08-09T02:09:59.622Z,95.3
2022-08-09T02:10:57.362Z,94.9
2022-08-09T02:11:58.017Z,94.9
2022-08-09T02:12:59.026Z,95.0
2022-08-09T02:14:06.609Z,94.9
2022-08-09T02:15:01.327Z,94.9
2022-08-09T02:16:01.924Z,96.0
2022-08-09T02:17:59.535Z,96.1
2022-08-09T02:18:10.164Z,95.6
2022-08-09T02:19:05.696Z,95.6
2022-08-09T02:20:06.293Z,96.2
2022-08-09T02:21:06.914Z,96.0
2022-08-09T02:22:08.265Z,96.0
2022-08-09T02:23:08.885Z,95.6
2022-08-09T02:24:09.472Z,96.1
2022-08-09T02:25:10.065Z,96.0
2022-08-09T02:26:26.916Z,96.2
2022-08-09T02:27:13.242Z,95.4
2022-08-09T02:28:17.881Z,95.8
2022-08-09T02:29:16.419Z,95.9
2022-08-09T02:30:17.014Z,96.3
2022-08-09T02:31:18.605Z,96.5
2022-08-09T02:32:19.197Z,96.3
2022-08-09T02:33:19.791Z,96.4
2022-08-09T02:34:40.738Z,96.4
2022-08-09T02:35:46.344Z,96.4
2022-08-09T02:36:26.268Z,96.2
2022-08-09T02:37:31.820Z,96.2
2022-08-09T02:38:28.857Z,96.1
2022-08-09T02:39:33.647Z,96.6
2022-08-09T02:40:30.971Z,96.4
2022-08-09T02:41:31.519Z,95.9
2022-08-09T02:42:33.459Z,96.0
2022-08-09T02:43:53.886Z,95.6
2022-08-09T02:44:35.713Z,95.6
2022-08-09T02:45:36.493Z,96.0
2022-08-09T02:46:37.106Z,96.2
2022-08-09T02:47:57.156Z,96.2
2022-08-09T02:48:40.230Z,96.1
2022-08-09T02:49:41.817Z,96.6
2022-08-09T02:50:42.414Z,96.3
2022-08-09T02:51:43.024Z,96.3
2022-08-09T02:52:43.679Z,96.8
2022-08-09T02:54:00.785Z,96.7
2022-08-09T02:54:51.117Z,96.7
2022-08-09T02:55:58.238Z,96.7
2022-08-09T02:56:51.548Z,97.0
2022-08-09T02:58:00.104Z,97.1
2022-08-09T02:58:52.181Z,96.5
2022-08-09T03:00:21.607Z,96.9
2022-08-09T03:00:58.397Z,97.1
2022-08-09T03:02:06.398Z,97.2
2022-08-09T03:02:59.947Z,97.1
2022-08-09T03:04:16.628Z,97.1
2022-08-09T03:05:00.720Z,97.1
2022-08-09T03:06:01.335Z,97.1
2022-08-09T03:07:12.197Z,96.9
2022-08-09T03:08:03.518Z,96.9
2022-08-09T03:09:04.930Z,97.2
2022-08-09T03:10:06.478Z,96.9
2022-08-09T03:11:07.073Z,97.4
2022-08-09T03:12:11.369Z,97.4
2022-08-09T03:13:09.978Z,97.5
2022-08-09T03:14:10.153Z,97.3
2022-08-09T03:15:10.776Z,97.8
2022-08-09T03:16:11.371Z,97.9
2022-08-09T03:17:16.477Z,97.4
2022-08-09T03:18:13.555Z,97.6
2022-08-09T03:19:52.749Z,97.5
2022-08-09T03:20:16.731Z,97.4
2022-08-09T03:21:17.328Z,97.6
2022-08-09T03:22:24.969Z,97.7
2022-08-09T03:23:24.404Z,97.5
2022-08-09T03:24:31.322Z,97.4
2022-08-09T03:25:26.650Z,97.6
2022-08-09T03:26:31.888Z,97.8
2022-08-09T03:27:25.867Z,98.9
2022-08-09T03:28:26.505Z,98.4
2022-08-09T03:29:27.071Z,98.6
2022-08-09T03:30:33.599Z,98.1
2022-08-09T03:31:30.250Z,98.1
2022-08-09T03:32:32.121Z,98.3
2022-08-09T03:33:53.416Z,98.3
2022-08-09T03:34:34.400Z,98.3
2022-08-09T03:36:13.570Z,98.4
2022-08-09T03:36:36.587Z,98.7
2022-08-09T03:37:55.982Z,99.0
2022-08-09T03:38:41.961Z,98.8
2022-08-09T03:39:40.430Z,99.0
2022-08-09T03:40:41.950Z,99.5
2022-08-09T03:41:46.026Z,99.3
2022-08-09T03:42:44.137Z,99.3
2022-08-09T03:43:51.797Z,100.0
2022-08-09T03:44:46.327Z,100.0
2022-08-09T03:46:03.949Z,100.0
2022-08-09T03:46:48.517Z,99.8
2022-08-09T03:47:49.211Z,100.0
2022-08-09T03:48:51.235Z,100.0
2022-08-09T03:49:58.416Z,100.0
2022-08-09T03:50:52.993Z,100.0
2022-08-09T03:51:58.437Z,100.0
2022-08-09T03:52:55.186Z,99.9
2022-08-09T03:53:56.779Z,99.9
2022-08-09T03:54:58.370Z,99.8
2022-08-09T03:55:58.968Z,100.0
2022-08-09T03:56:59.569Z,100.0
2022-08-09T03:58:14.638Z,100.0
2022-08-09T03:59:01.761Z,100.0
2022-08-09T04:00:03.354Z,100.0
2022-08-09T04:01:04.012Z,100.0
2022-08-09T04:02:05.380Z,100.0
2022-08-09T04:03:06.998Z,100.0
2022-08-09T04:04:14.513Z,100.0
2022-08-09T04:05:27.444Z,100.0
2022-08-09T04:06:11.848Z,100.0
2022-08-09T04:07:12.351Z,100.0
2022-08-09T04:08:13.946Z,100.0
2022-08-09T04:09:48.277Z,100.0
2022-08-09T04:10:20.301Z,100.0
2022-08-09T04:11:18.727Z,100.0
2022-08-09T04:12:31.022Z,100.0
2022-08-09T04:13:26.088Z,100.0
2022-08-09T04:14:54.218Z,100.0
2022-08-09T04:15:50.379Z,100.0
2022-08-09T04:16:25.705Z,100.0
2022-08-09T04:17:26.526Z,100.0
2022-08-09T04:18:28.211Z,100.0
2022-08-09T04:19:30.258Z,100.0
2022-08-09T04:20:30.331Z,100.0
2022-08-09T04:21:36.289Z,100.0
2022-08-09T04:22:33.680Z,100.0
2022-08-09T04:23:34.359Z,100.0
2022-08-09T04:24:34.949Z,100.0
2022-08-09T04:25:35.564Z,100.0
2022-08-09T04:26:38.116Z,100.0
2022-08-09T04:27:38.755Z,100.0
2022-08-09T04:28:42.338Z,100.0
2022-08-09T04:29:49.997Z,100.0
2022-08-09T04:30:44.987Z,100.0
2022-08-09T04:31:46.764Z,100.0
2022-08-09T04:32:47.691Z,100.0
2022-08-09T04:33:56.852Z,100.0
2022-08-09T04:34:54.341Z,100.0
2022-08-09T04:35:51.508Z,100.0
2022-08-09T04:36:52.115Z,100.0
2022-08-09T04:37:53.164Z,100.0
2022-08-09T04:38:54.074Z,100.0
2022-08-09T04:39:54.657Z,100.0
2022-08-09T04:40:57.145Z,100.0
2022-08-09T04:41:57.148Z,100.0
2022-08-09T04:42:58.744Z,100.0
2022-08-09T04:44:06.328Z,100.0
2022-08-09T04:45:00.941Z,100.0
2022-08-09T04:46:01.542Z,100.0
2022-08-09T04:47:04.302Z,100.0
2022-08-09T04:48:07.966Z,100.0
2022-08-09T04:49:05.331Z,99.8
2022-08-09T04:50:05.932Z,99.9
2022-08-09T04:51:07.527Z,99.9
2022-08-09T04:52:09.702Z,100.0
2022-08-09T04:53:11.599Z,99.8
2022-08-09T04:54:11.338Z,100.0
2022-08-09T04:55:13.340Z,100.0
2022-08-09T04:56:14.471Z,99.9
2022-08-09T04:57:16.075Z,99.9
2022-08-09T04:58:17.658Z,100.0
2022-08-09T04:59:18.695Z,100.0
2022-08-09T05:00:20.290Z,100.0
2022-08-09T05:01:20.908Z,100.0
2022-08-09T05:02:22.501Z,100.0
2022-08-09T05:03:40.498Z,99.9
2022-08-09T05:04:31.033Z,100.0
2022-08-09T05:05:32.319Z,100.0
2022-08-09T05:06:29.801Z,99.3
2022-08-09T05:07:32.032Z,99.3
2022-08-09T05:08:31.077Z,99.2
2022-08-09T05:09:42.087Z,99.1
2022-08-09T05:10:33.272Z,98.5
2022-08-09T05:11:35.301Z,98.6
2022-08-09T05:12:36.661Z,98.2
2022-08-09T05:13:38.659Z,98.1
2022-08-09T05:14:41.138Z,98.5
2022-08-09T05:15:47.630Z,99.0
2022-08-09T05:16:43.432Z,97.7
2022-08-09T05:18:50.851Z,97.5
2022-08-09T05:18:57.779Z,97.4
2022-08-09T05:19:46.588Z,97.5
2022-08-09T05:20:47.188Z,96.9
2022-08-09T05:21:55.733Z,97.3
2022-08-09T05:23:55.291Z,96.9
2022-08-09T05:24:00.403Z,96.7
2022-08-09T05:24:52.572Z,96.8
2022-08-09T05:25:54.168Z,96.3
2022-08-09T05:26:55.761Z,95.9
2022-08-09T05:27:56.944Z,96.0
2022-08-09T05:28:57.546Z,95.8
2022-08-09T05:29:59.076Z,95.6
2022-08-09T05:30:58.977Z,95.7
2022-08-09T05:31:59.576Z,95.1
2022-08-09T05:33:00.180Z,94.8
2022-08-09T05:34:01.775Z,93.8
2022-08-09T05:35:02.473Z,93.1
2022-08-09T05:36:03.074Z,90.5
2022-08-09T05:37:05.231Z,84.9
2022-08-09T05:38:04.541Z,79.8
2022-08-09T05:39:05.193Z,75.9
2022-08-09T05:40:06.777Z,73.7
2022-08-09T05:41:07.350Z,71.0
2022-08-09T05:42:08.943Z,70.2
2022-08-09T05:43:09.545Z,67.7
2022-08-09T05:44:10.146Z,66.7
2022-08-09T05:45:10.760Z,66.3
2022-08-09T05:46:12.354Z,66.6
2022-08-09T05:47:12.953Z,65.8
2022-08-09T05:48:13.665Z,65.5
2022-08-09T05:50:15.580Z,64.4
2022-08-09T05:50:35.076Z,62.3
2022-08-09T05:51:42.974Z,62.8
2022-08-09T05:52:20.043Z,61.0
2022-08-09T05:53:31.978Z,63.1
2022-08-09T05:54:22.253Z,64.4
2022-08-09T05:55:24.205Z,64.0
2022-08-09T05:56:25.789Z,63.9
2022-08-09T05:57:51.296Z,62.3
2022-08-09T05:58:27.137Z,63.5
2022-08-09T05:59:27.739Z,62.0
2022-08-09T06:00:29.550Z,59.7
2022-08-09T06:01:33.978Z,63.4
2022-08-09T06:02:30.322Z,63.1
2022-08-09T06:03:34.845Z,57.5
2022-08-09T06:04:35.060Z,56.2
2022-08-09T06:05:58.126Z,54.8
2022-08-09T06:06:36.550Z,54.5
2022-08-09T06:07:38.153Z,54.1
2022-08-09T06:08:38.765Z,54.7
2022-08-09T06:09:54.417Z,58.5
2022-08-09T06:10:40.930Z,60.1
2022-08-09T06:11:57.434Z,60.6
2022-08-09T06:12:43.125Z,60.9
2022-08-09T06:13:43.731Z,59.6
2022-08-09T06:14:45.529Z,58.9
2022-08-09T06:15:46.893Z,59.9
2022-08-09T06:16:52.366Z,58.7
2022-08-09T06:17:49.275Z,59.9
2022-08-09T06:18:50.871Z,61.3
2022-08-09T06:19:51.490Z,58.9
2022-08-09T06:20:56.465Z,56.9
2022-08-09T06:21:58.939Z,57.2
2022-08-09T06:22:55.279Z,56.8
2022-08-09T06:24:01.385Z,57.5
2022-08-09T06:24:57.489Z,55.6
2022-08-09T06:25:58.091Z,55.1
2022-08-09T06:26:59.686Z,53.1
2022-08-09T06:28:00.287Z,56.2
2022-08-09T06:29:05.413Z,55.4
2022-08-09T06:30:08.840Z,54.6
2022-08-09T06:31:05.072Z,54.8
2022-08-09T06:32:08.515Z,54.5
2022-08-09T06:33:30.528Z,53.1
2022-08-09T06:34:07.884Z,53.6
2022-08-09T06:35:09.478Z,52.9
2022-08-09T06:36:13.661Z,53.6
2022-08-09T06:37:11.862Z,53.6
2022-08-09T06:38:12.465Z,52.0
2022-08-09T06:39:14.147Z,49.6
2022-08-09T06:40:23.861Z,49.8
2022-08-09T06:41:19.048Z,50.5
2022-08-09T06:42:19.737Z,51.2
2022-08-09T06:43:20.440Z,53.6
2022-08-09T06:44:21.211Z,52.0
2022-08-09T06:46:04.708Z,50.0
2022-08-09T06:46:40.219Z,49.7
2022-08-09T06:47:24.089Z,49.9
2022-08-09T06:48:30.424Z,52.6
2022-08-09T06:49:45.155Z,52.3
2022-08-09T06:50:27.823Z,52.6
2022-08-09T06:51:29.420Z,53.7
2022-08-09T06:52:31.200Z,53.6
2022-08-09T06:53:33.333Z,54.2
2022-08-09T06:54:34.104Z,52.6
2022-08-09T06:55:34.703Z,49.9
2022-08-09T06:56:35.325Z,48.9
2022-08-09T06:58:01.880Z,48.8
2022-08-09T07:00:47.519Z,48.9
2022-08-09T07:00:50.474Z,50.6
2022-08-09T07:00:52.320Z,51.0
2022-08-09T07:01:53.620Z,49.0
2022-08-09T07:02:42.979Z,47.4
2022-08-09T07:03:51.815Z,45.2
2022-08-09T07:04:46.131Z,48.5
2022-08-09T07:05:58.619Z,49.3
2022-08-09T07:06:48.327Z,48.3
2022-08-09T07:08:00.932Z,48.3
2022-08-09T07:08:49.828Z,49.8
2022-08-09T07:09:55.013Z,51.4
2022-08-09T07:10:51.965Z,52.7
2022-08-09T07:11:53.630Z,51.9
2022-08-09T07:12:57.447Z,49.8
2022-08-09T07:14:05.223Z,50.9
2022-08-09T07:14:57.461Z,49.9
2022-08-09T07:16:42.046Z,50.9
2022-08-09T07:16:59.676Z,54.7
2022-08-09T07:18:02.550Z,54.6
2022-08-09T07:19:01.876Z,54.9
2022-08-09T07:20:02.540Z,54.7
2022-08-09T07:21:03.099Z,54.6
2022-08-09T07:22:04.694Z,53.4
2022-08-09T07:23:18.153Z,56.0
2022-08-09T07:24:06.891Z,57.2
2022-08-09T07:25:09.827Z,57.5
2022-08-09T07:26:09.089Z,57.7
2022-08-09T07:27:11.080Z,59.6
2022-08-09T07:28:10.315Z,60.1
2022-08-09T07:29:13.508Z,59.0
2022-08-09T07:30:12.530Z,58.0
2022-08-09T07:31:13.184Z,56.3
2022-08-09T07:32:13.802Z,57.7
2022-08-09T07:33:16.432Z,56.7
2022-08-09T07:34:20.352Z,57.5
2022-08-09T07:35:17.600Z,57.0
2022-08-09T07:36:19.196Z,56.3
2022-08-09T07:37:19.796Z,55.7
2022-08-09T07:38:21.392Z,54.8
2022-08-09T07:39:40.516Z,55.3
2022-08-09T07:40:26.903Z,57.0
2022-08-09T07:41:26.180Z,58.4
2022-08-09T07:42:32.815Z,58.9
2022-08-09T07:43:29.138Z,59.7
2022-08-09T07:44:32.978Z,59.9
2022-08-09T07:45:38.027Z,62.7
2022-08-09T07:46:31.951Z,63.3
2022-08-09T07:47:49.460Z,63.1
2022-08-09T07:48:34.298Z,64.5
2022-08-09T07:49:35.582Z,65.2
2022-08-09T07:50:37.176Z,66.1
2022-08-09T07:52:05.213Z,66.6
2022-08-09T07:52:40.552Z,64.7
2022-08-09T07:54:07.073Z,63.8
2022-08-09T07:54:43.563Z,66.0
2022-08-09T07:56:03.659Z,66.4
2022-08-09T07:56:48.947Z,66.1
2022-08-09T07:57:48.353Z,66.5
2022-08-09T07:58:48.967Z,66.3
2022-08-09T07:59:58.543Z,65.9
2022-08-09T08:00:56.119Z,65.7
2022-08-09T08:01:53.022Z,65.7
2022-08-09T08:02:54.040Z,64.1
2022-08-09T08:03:54.648Z,63.9
2022-08-09T08:04:55.247Z,63.7
2022-08-09T08:05:58.208Z,63.5
2022-08-09T08:07:00.290Z,62.6
2022-08-09T08:09:00.981Z,63.0
2022-08-09T08:09:04.962Z,63.1
2022-08-09T08:10:08.857Z,64.0
2022-08-09T08:12:09.274Z,63.1
2022-08-09T08:12:10.351Z,61.6
2022-08-09T08:13:06.659Z,62.9
2022-08-09T08:14:08.114Z,63.0
2022-08-09T08:15:09.422Z,63.7
2022-08-09T08:16:31.676Z,64.1
2022-08-09T08:17:35.016Z,65.9
2022-08-09T08:18:14.406Z,64.2
2022-08-09T08:19:15.161Z,63.5
2022-08-09T08:20:15.779Z,63.3
2022-08-09T08:21:16.713Z,62.9
2022-08-09T08:22:17.316Z,63.6
2022-08-09T08:23:18.017Z,63.5
2022-08-09T08:24:18.552Z,64.2
2022-08-09T08:25:19.895Z,65.4
2022-08-09T08:26:26.683Z,66.2
2022-08-09T08:27:22.093Z,65.4
2022-08-09T08:28:32.175Z,65.3
2022-08-09T08:29:27.910Z,64.4
2022-08-09T08:30:26.885Z,66.2
2022-08-09T08:31:39.363Z,66.3
2022-08-09T08:32:30.077Z,66.6
2022-08-09T08:33:40.551Z,64.3
2022-08-09T08:34:33.776Z,65.4
2022-08-09T08:35:58.130Z,65.9
2022-08-09T08:36:35.467Z,64.7
2022-08-09T08:37:41.536Z,63.3
2022-08-09T08:38:38.658Z,63.2
2022-08-09T08:39:43.737Z,63.2
2022-08-09T08:40:40.872Z,64.2
2022-08-09T08:41:50.327Z,64.3
2022-08-09T08:42:47.106Z,64.1
2022-08-09T08:43:44.853Z,64.9
2022-08-09T08:44:46.305Z,65.5
2022-08-09T08:45:51.398Z,65.1
2022-08-09T08:47:00.013Z,63.4
2022-08-09T08:47:50.127Z,63.5
2022-08-09T08:48:53.919Z,63.0
2022-08-09T08:49:54.484Z,63.5
2022-08-09T08:50:54.915Z,63.4
2022-08-09T08:52:00.433Z,62.3
2022-08-09T08:53:00.275Z,62.5
2022-08-09T08:54:03.765Z,61.1
2022-08-09T08:55:01.302Z,61.5
2022-08-09T08:56:01.287Z,62.4
2022-08-09T08:57:02.884Z,61.0
2022-08-09T08:58:04.479Z,61.8
2022-08-09T08:59:07.899Z,61.7
2022-08-09T09:00:12.704Z,63.3
2022-08-09T09:01:19.567Z,61.5
2022-08-09T09:02:10.906Z,60.8
2022-08-09T09:03:25.266Z,61.4
2022-08-09T09:04:14.069Z,60.0
2022-08-09T09:05:15.143Z,60.0
2022-08-09T09:06:15.759Z,57.1
2022-08-09T09:07:16.363Z,56.8
2022-08-09T09:08:30.180Z,56.4
2022-08-09T09:09:21.169Z,56.5
2022-08-09T09:10:20.159Z,58.0
2022-08-09T09:11:20.765Z,58.8
2022-08-09T09:12:21.814Z,57.4
2022-08-09T09:13:22.389Z,57.4
2022-08-09T09:14:23.705Z,56.8
2022-08-09T09:15:28.620Z,57.2
2022-08-09T09:16:30.964Z,56.6
2022-08-09T09:17:48.177Z,56.4
2022-08-09T09:18:29.246Z,55.7
2022-08-09T09:19:40.937Z,55.9
2022-08-09T09:20:31.324Z,56.3
2022-08-09T09:21:32.921Z,56.4
2022-08-09T09:22:34.621Z,57.7
2022-08-09T09:23:37.793Z,57.2
2022-08-09T09:24:37.762Z,56.6
2022-08-09T09:26:01.002Z,55.3
2022-08-09T09:26:38.235Z,55.1
2022-08-09T09:28:05.246Z,56.7
2022-08-09T09:29:03.440Z,55.5
2022-08-09T09:30:08.383Z,55.1
2022-08-09T09:30:42.738Z,55.7
2022-08-09T09:32:03.605Z,55.9
2022-08-09T09:32:45.867Z,56.1
2022-08-09T09:33:46.456Z,56.3
2022-08-09T09:34:48.055Z,57.4
2022-08-09T09:35:49.648Z,56.8
2022-08-09T09:36:53.917Z,56.5
2022-08-09T09:37:52.854Z,57.1
2022-08-09T09:38:53.447Z,56.9
2022-08-09T09:39:57.202Z,56.3
2022-08-09T09:40:55.651Z,55.0
2022-08-09T09:41:56.263Z,55.1
2022-08-09T09:42:57.797Z,54.8
2022-08-09T09:44:10.846Z,55.1
2022-08-09T09:45:00.009Z,54.9
2022-08-09T09:47:02.514Z,54.9
2022-08-09T09:48:03.326Z,54.0
2022-08-09T09:49:04.923Z,55.0
2022-08-09T09:50:14.581Z,54.4
2022-08-09T09:51:11.707Z,53.8
2022-08-09T09:52:33.531Z,54.9
2022-08-09T09:53:11.310Z,55.0
2022-08-09T09:54:20.994Z,54.1
2022-08-09T09:55:16.276Z,51.8
2022-08-09T09:56:20.172Z,52.9
2022-08-09T09:58:03.516Z,53.7
2022-08-09T09:58:20.119Z,53.6
2022-08-09T09:59:20.890Z,52.9
2022-08-09T10:00:22.485Z,54.0
2022-08-09T10:01:37.233Z,52.7
2022-08-09T10:02:25.679Z,53.6
2022-08-09T10:03:26.317Z,53.3
2022-08-09T10:04:30.895Z,53.8
2022-08-09T10:06:00.705Z,53.7
2022-08-09T10:06:32.265Z,53.3
2022-08-09T10:07:32.800Z,52.6
2022-08-09T10:08:43.078Z,54.8
2022-08-09T10:09:35.367Z,53.8
2022-08-09T10:10:36.962Z,52.7
2022-08-09T10:12:11.891Z,52.4
2022-08-09T10:12:43.966Z,53.4
2022-08-09T10:13:45.161Z,52.4
2022-08-09T10:14:47.653Z,52.1
2022-08-09T10:16:08.859Z,51.9
2022-08-09T10:16:57.935Z,51.8
2022-08-09T10:17:55.795Z,52.0
2022-08-09T10:18:51.245Z,52.2
2022-08-09T10:19:53.030Z,51.7
2022-08-09T10:20:52.936Z,51.6
2022-08-09T10:21:53.540Z,50.9
2022-08-09T10:22:58.478Z,50.7
2022-08-09T10:23:55.739Z,52.2
2022-08-09T10:24:56.341Z,51.9
2022-08-09T10:26:07.072Z,52.1
2022-08-09T10:26:58.543Z,51.8
2022-08-09T10:27:59.163Z,52.4
2022-08-09T10:29:33.699Z,53.0
2022-08-09T10:30:18.028Z,52.3
2022-08-09T10:33:08.102Z,52.0
2022-08-09T10:34:32.930Z,52.1
2022-08-09T10:35:09.764Z,50.8
2022-08-09T10:36:12.247Z,50.0
2022-08-09T10:37:13.950Z,51.5
2022-08-09T10:38:34.006Z,51.3
2022-08-09T10:39:18.199Z,51.5
2022-08-09T10:40:33.268Z,52.1
2022-08-09T10:41:17.838Z,51.6
2022-08-09T10:42:18.521Z,51.3
2022-08-09T10:43:19.112Z,51.8
2022-08-09T10:44:21.612Z,51.4
2022-08-09T10:45:20.777Z,52.0
2022-08-09T10:46:26.678Z,50.9
2022-08-09T10:48:19.381Z,52.5
2022-08-09T10:48:30.397Z,51.9
2022-08-09T10:49:50.150Z,52.1
2022-08-09T10:50:31.079Z,51.6
2022-08-09T10:51:40.808Z,52.5
2022-08-09T10:52:32.205Z,52.5
2022-08-09T10:53:37.987Z,51.6
2022-08-09T10:54:34.176Z,50.6
2022-08-09T10:55:58.147Z,51.1
2022-08-09T10:56:37.373Z,51.1
2022-08-09T10:57:38.025Z,50.0
2022-08-09T10:58:39.585Z,51.6
2022-08-09T10:59:43.042Z,51.6
2022-08-09T11:01:10.952Z,52.1
2022-08-09T11:03:06.759Z,50.9
2022-08-09T11:03:27.582Z,51.2
2022-08-09T11:03:51.399Z,51.5
2022-08-09T11:04:55.559Z,51.2
2022-08-09T11:05:59.959Z,50.3
2022-08-09T11:06:52.362Z,49.3
2022-08-09T11:07:57.693Z,51.1
2022-08-09T11:08:59.728Z,49.9
2022-08-09T11:09:59.795Z,49.9
2022-08-09T11:11:00.881Z,49.1
2022-08-09T11:12:00.352Z,50.3
2022-08-09T11:13:01.950Z,49.8
2022-08-09T11:14:03.548Z,50.2
2022-08-09T11:15:04.171Z,50.3
2022-08-09T11:16:06.991Z,50.2
2022-08-09T11:17:07.363Z,49.1
2022-08-09T11:18:07.989Z,50.1
2022-08-09T11:19:10.611Z,49.1
2022-08-09T11:20:22.080Z,50.6
2022-08-09T11:21:11.076Z,49.9
2022-08-09T11:22:24.542Z,49.8
2022-08-09T11:23:12.299Z,51.1
2022-08-09T11:24:13.738Z,50.0
2022-08-09T11:25:14.573Z,50.4
2022-08-09T11:26:15.360Z,50.2
2022-08-09T11:27:16.957Z,49.1
2022-08-09T11:28:30.849Z,49.9
2022-08-09T11:29:18.194Z,49.3
2022-08-09T11:30:32.049Z,50.5
2022-08-09T11:31:36.628Z,49.1
2022-08-09T11:32:22.988Z,48.3
2022-08-09T11:34:37.937Z,48.4
2022-08-09T11:35:49.159Z,49.1
2022-08-09T11:36:40.134Z,50.5
2022-08-09T11:37:41.577Z,48.8
2022-08-09T11:38:42.336Z,48.5
2022-08-09T11:39:43.969Z,49.0
2022-08-09T11:40:44.553Z,49.2
2022-08-09T11:41:45.285Z,49.3
2022-08-09T11:42:45.839Z,49.7
2022-08-09T11:43:46.443Z,49.1
2022-08-09T11:44:47.501Z,49.3
2022-08-09T11:45:48.106Z,49.0
2022-08-09T11:46:48.728Z,47.6
2022-08-09T11:47:49.331Z,47.7
2022-08-09T11:48:49.933Z,48.9
2022-08-09T11:50:53.453Z,48.7
2022-08-09T11:50:57.034Z,47.8
2022-08-09T11:53:00.573Z,49.1
2022-08-09T11:53:15.497Z,48.7
2022-08-09T11:53:59.196Z,49.6
2022-08-09T11:54:58.528Z,50.9
2022-08-09T11:56:02.856Z,49.4
2022-08-09T11:57:00.731Z,49.9
2022-08-09T11:58:05.905Z,49.0
2022-08-09T11:59:03.275Z,48.2
2022-08-09T12:00:03.943Z,48.9
2022-08-09T12:01:08.778Z,48.7
2022-08-09T12:02:34.517Z,49.0
2022-08-09T12:03:40.980Z,47.7
2022-08-09T12:04:10.096Z,48.9
2022-08-09T12:05:17.838Z,48.4
2022-08-09T12:06:12.267Z,49.5
2022-08-09T12:07:14.334Z,49.4
2022-08-09T12:08:21.819Z,49.1
2022-08-09T12:09:19.303Z,49.1
2022-08-09T12:10:38.402Z,48.7
2022-08-09T12:11:18.290Z,48.6
2022-08-09T12:12:28.561Z,48.8
2022-08-09T12:14:07.916Z,49.6
2022-08-09T12:14:36.970Z,49.6
2022-08-09T12:15:48.921Z,49.1
2022-08-09T12:16:30.317Z,49.0
2022-08-09T12:17:34.636Z,48.1
2022-08-09T12:18:31.052Z,48.4
2022-08-09T12:19:30.093Z,48.1
2022-08-09T12:20:30.700Z,48.1
2022-08-09T12:21:38.165Z,47.5
2022-08-09T12:22:33.673Z,46.6
2022-08-09T12:23:56.611Z,46.7
2022-08-09T12:24:35.994Z,46.0
2022-08-09T12:25:38.351Z,46.5
2022-08-09T12:26:39.190Z,46.7
2022-08-09T12:29:11.994Z,47.2
2022-08-09T12:29:15.214Z,46.5
2022-08-09T12:29:52.603Z,47.8
2022-08-09T12:30:43.706Z,48.0
2022-08-09T12:31:59.086Z,48.4
2022-08-09T12:32:48.330Z,47.9
2022-08-09T12:33:59.054Z,47.8
2022-08-09T12:34:48.412Z,48.6
2022-08-09T12:35:49.019Z,48.4
2022-08-09T12:36:49.638Z,46.9
2022-08-09T12:37:51.976Z,47.1
2022-08-09T12:38:52.836Z,47.8
2022-08-09T12:39:53.441Z,47.8
2022-08-09T12:40:54.048Z,47.1
2022-08-09T12:41:55.061Z,47.0
2022-08-09T12:42:55.695Z,47.6
2022-08-09T12:44:05.746Z,46.9
2022-08-09T12:44:59.447Z,48.0
2022-08-09T12:46:00.608Z,47.9
2022-08-09T12:47:01.334Z,47.2
2022-08-09T12:48:02.185Z,47.1
2022-08-09T12:49:02.790Z,45.5
2022-08-09T12:50:03.393Z,46.5
2022-08-09T12:51:04.283Z,46.1
2022-08-09T12:52:04.927Z,44.3
2022-08-09T12:53:09.130Z,45.3
2022-08-09T12:54:06.153Z,45.3
2022-08-09T12:56:14.046Z,47.7
2022-08-09T12:56:16.241Z,46.4
2022-08-09T12:57:10.467Z,47.6
2022-08-09T12:58:11.682Z,46.8
2022-08-09T12:59:14.043Z,46.8
2022-08-09T13:00:14.269Z,46.4
2022-08-09T13:01:15.281Z,46.0
2022-08-09T13:02:16.803Z,46.4
2022-08-09T13:03:20.715Z,47.7
2022-08-09T13:04:36.471Z,45.6
2022-08-09T13:05:20.625Z,47.7
2022-08-09T13:06:22.226Z,48.2
2022-08-09T13:07:40.958Z,47.7
2022-08-09T13:08:40.266Z,47.7
2022-08-09T13:09:25.044Z,47.1
2022-08-09T13:10:27.026Z,46.9
2022-08-09T13:11:27.268Z,46.6
2022-08-09T13:12:27.881Z,47.5
2022-08-09T13:13:28.615Z,46.4
2022-08-09T13:14:41.897Z,45.7
2022-08-09T13:15:33.981Z,45.3
2022-08-09T13:16:33.408Z,44.5
2022-08-09T13:18:02.621Z,44.8
2022-08-09T13:18:35.731Z,44.8
2022-08-09T13:20:10.728Z,45.6
2022-08-09T13:21:04.045Z,45.8
2022-08-09T13:22:37.347Z,44.6
2022-08-09T13:23:01.573Z,45.3
2022-08-09T13:24:15.815Z,44.8
2022-08-09T13:24:53.872Z,45.4
2022-08-09T13:25:54.669Z,45.3
2022-08-09T13:26:49.712Z,44.5
2022-08-09T13:27:56.250Z,44.6
2022-08-09T13:28:50.713Z,44.8
2022-08-09T13:30:04.175Z,45.1
2022-08-09T13:32:13.951Z,44.6
2022-08-09T13:32:19.414Z,45.2
2022-08-09T13:32:55.425Z,45.0
2022-08-09T13:33:56.032Z,44.1
2022-08-09T13:34:56.635Z,44.9
2022-08-09T13:36:39.106Z,45.6
2022-08-09T13:36:58.836Z,44.9